sensor_id;sensor_type;location;lat;lon;timestamp;P1;durP1;ratioP1;P2;durP2;ratioP2
7359;SDS011;3720;48.274;7.796;2023-06-14T00:02:26;6.88;;;4.22;;
7359;SDS011;3720;48.274;7.796;2023-06-14T00:04:58;4.85;;;4.07;;
7359;SDS011;3720;48.274;7.796;2023-06-14T00:07:34;7.72;;;4.07;;
7359;SDS011;3720;48.274;7.796;2023-06-14T00:10:06;5.63;;;4.10;;
7359;SDS011;3720;48.274;7.796;2023-06-14T00:12:40;6.40;;;4.13;;
7359;SDS011;3720;48.274;7.796;2023-06-14T00:15:12;6.65;;;4.10;;
7359;SDS011;3720;48.274;7.796;2023-06-14T00:17:44;7.22;;;4.20;;
7359;SDS011;3720;48.274;7.796;2023-06-14T00:20:17;6.78;;;4.03;;
7359;SDS011;3720;48.274;7.796;2023-06-14T00:22:49;4.97;;;4.00;;
7359;SDS011;3720;48.274;7.796;2023-06-14T00:25:22;5.88;;;4.47;;
7359;SDS011;3720;48.274;7.796;2023-06-14T00:27:56;7.93;;;3.92;;
7359;SDS011;3720;48.274;7.796;2023-06-14T00:30:29;6.97;;;4.20;;
7359;SDS011;3720;48.274;7.796;2023-06-14T00:33:00;5.47;;;4.35;;
7359;SDS011;3720;48.274;7.796;2023-06-14T00:35:33;7.05;;;4.60;;
7359;SDS011;3720;48.274;7.796;2023-06-14T00:38:05;5.80;;;4.18;;
7359;SDS011;3720;48.274;7.796;2023-06-14T00:40:36;5.82;;;4.20;;
7359;SDS011;3720;48.274;7.796;2023-06-14T00:43:10;5.05;;;4.30;;
7359;SDS011;3720;48.274;7.796;2023-06-14T00:45:42;5.65;;;4.45;;
7359;SDS011;3720;48.274;7.796;2023-06-14T00:48:14;6.40;;;4.20;;
7359;SDS011;3720;48.274;7.796;2023-06-14T00:50:46;6.28;;;4.32;;
7359;SDS011;3720;48.274;7.796;2023-06-14T00:53:20;6.47;;;4.35;;
7359;SDS011;3720;48.274;7.796;2023-06-14T00:55:53;6.43;;;4.47;;
7359;SDS011;3720;48.274;7.796;2023-06-14T00:58:26;7.00;;;4.10;;
7359;SDS011;3720;48.274;7.796;2023-06-14T01:00:59;7.97;;;4.40;;
7359;SDS011;3720;48.274;7.796;2023-06-14T01:03:31;5.05;;;4.25;;
7359;SDS011;3720;48.274;7.796;2023-06-14T01:06:05;6.57;;;4.50;;
7359;SDS011;3720;48.274;7.796;2023-06-14T01:08:51;6.57;;;4.47;;
7359;SDS011;3720;48.274;7.796;2023-06-14T01:11:37;5.85;;;4.40;;
7359;SDS011;3720;48.274;7.796;2023-06-14T01:14:13;6.32;;;4.13;;
7359;SDS011;3720;48.274;7.796;2023-06-14T01:16:48;4.95;;;4.22;;
7359;SDS011;3720;48.274;7.796;2023-06-14T01:19:23;7.00;;;4.45;;
7359;SDS011;3720;48.274;7.796;2023-06-14T01:21:56;5.18;;;3.95;;
7359;SDS011;3720;48.274;7.796;2023-06-14T01:24:29;6.55;;;4.88;;
7359;SDS011;3720;48.274;7.796;2023-06-14T01:27:03;7.80;;;4.45;;
7359;SDS011;3720;48.274;7.796;2023-06-14T01:29:37;4.78;;;3.95;;
7359;SDS011;3720;48.274;7.796;2023-06-14T01:32:09;6.97;;;4.30;;
7359;SDS011;3720;48.274;7.796;2023-06-14T01:34:41;6.10;;;4.07;;
7359;SDS011;3720;48.274;7.796;2023-06-14T01:37:13;5.20;;;4.15;;
7359;SDS011;3720;48.274;7.796;2023-06-14T01:39:47;6.38;;;4.50;;
7359;SDS011;3720;48.274;7.796;2023-06-14T01:42:21;7.43;;;4.38;;
7359;SDS011;3720;48.274;7.796;2023-06-14T01:44:55;5.45;;;4.28;;
7359;SDS011;3720;48.274;7.796;2023-06-14T01:47:27;6.07;;;4.25;;
7359;SDS011;3720;48.274;7.796;2023-06-14T01:50:00;5.68;;;4.00;;
7359;SDS011;3720;48.274;7.796;2023-06-14T01:52:32;5.40;;;4.25;;
7359;SDS011;3720;48.274;7.796;2023-06-14T01:55:07;9.05;;;4.63;;
7359;SDS011;3720;48.274;7.796;2023-06-14T01:57:39;7.25;;;5.15;;
7359;SDS011;3720;48.274;7.796;2023-06-14T02:00:12;7.28;;;4.75;;
7359;SDS011;3720;48.274;7.796;2023-06-14T02:02:46;6.65;;;5.13;;
7359;SDS011;3720;48.274;7.796;2023-06-14T02:05:17;6.38;;;5.10;;
7359;SDS011;3720;48.274;7.796;2023-06-14T02:07:49;8.32;;;5.05;;
7359;SDS011;3720;48.274;7.796;2023-06-14T02:10:23;6.32;;;4.82;;
7359;SDS011;3720;48.274;7.796;2023-06-14T02:12:55;8.43;;;5.18;;
7359;SDS011;3720;48.274;7.796;2023-06-14T02:15:27;8.63;;;5.00;;
7359;SDS011;3720;48.274;7.796;2023-06-14T02:18:04;6.53;;;4.72;;
7359;SDS011;3720;48.274;7.796;2023-06-14T02:20:35;9.30;;;5.00;;
7359;SDS011;3720;48.274;7.796;2023-06-14T02:23:08;7.55;;;5.35;;
7359;SDS011;3720;48.274;7.796;2023-06-14T02:25:41;6.97;;;5.00;;
7359;SDS011;3720;48.274;7.796;2023-06-14T02:28:15;8.50;;;5.38;;
7359;SDS011;3720;48.274;7.796;2023-06-14T02:30:46;7.05;;;4.97;;
7359;SDS011;3720;48.274;7.796;2023-06-14T02:33:18;5.93;;;5.10;;
7359;SDS011;3720;48.274;7.796;2023-06-14T02:35:50;7.32;;;5.00;;
7359;SDS011;3720;48.274;7.796;2023-06-14T02:38:22;5.53;;;4.85;;
7359;SDS011;3720;48.274;7.796;2023-06-14T02:40:56;8.43;;;4.88;;
7359;SDS011;3720;48.274;7.796;2023-06-14T02:43:29;9.45;;;5.28;;
7359;SDS011;3720;48.274;7.796;2023-06-14T02:46:01;6.88;;;4.93;;
7359;SDS011;3720;48.274;7.796;2023-06-14T02:48:33;6.95;;;5.00;;
7359;SDS011;3720;48.274;7.796;2023-06-14T02:51:04;6.30;;;4.88;;
7359;SDS011;3720;48.274;7.796;2023-06-14T02:53:38;6.55;;;5.30;;
7359;SDS011;3720;48.274;7.796;2023-06-14T02:56:12;7.47;;;5.32;;
7359;SDS011;3720;48.274;7.796;2023-06-14T02:58:43;9.60;;;5.20;;
7359;SDS011;3720;48.274;7.796;2023-06-14T03:01:16;9.93;;;5.18;;
7359;SDS011;3720;48.274;7.796;2023-06-14T03:03:48;8.77;;;4.95;;
7359;SDS011;3720;48.274;7.796;2023-06-14T03:06:19;6.45;;;5.20;;
7359;SDS011;3720;48.274;7.796;2023-06-14T03:08:55;6.78;;;5.20;;
7359;SDS011;3720;48.274;7.796;2023-06-14T03:11:30;8.77;;;5.25;;
7359;SDS011;3720;48.274;7.796;2023-06-14T03:14:02;6.72;;;4.88;;
7359;SDS011;3720;48.274;7.796;2023-06-14T03:16:34;6.43;;;4.97;;
7359;SDS011;3720;48.274;7.796;2023-06-14T03:19:07;6.50;;;5.13;;
7359;SDS011;3720;48.274;7.796;2023-06-14T03:21:39;7.65;;;5.22;;
7359;SDS011;3720;48.274;7.796;2023-06-14T03:24:14;7.85;;;5.43;;
7359;SDS011;3720;48.274;7.796;2023-06-14T03:26:49;7.88;;;5.30;;
7359;SDS011;3720;48.274;7.796;2023-06-14T03:29:21;7.88;;;5.20;;
7359;SDS011;3720;48.274;7.796;2023-06-14T03:31:56;11.13;;;5.35;;
7359;SDS011;3720;48.274;7.796;2023-06-14T03:34:29;11.30;;;5.70;;
7359;SDS011;3720;48.274;7.796;2023-06-14T03:37:01;8.80;;;5.22;;
7359;SDS011;3720;48.274;7.796;2023-06-14T03:39:33;10.63;;;5.82;;
7359;SDS011;3720;48.274;7.796;2023-06-14T03:42:08;8.63;;;5.32;;
7359;SDS011;3720;48.274;7.796;2023-06-14T03:44:40;7.15;;;5.28;;
7359;SDS011;3720;48.274;7.796;2023-06-14T03:47:12;10.30;;;5.35;;
7359;SDS011;3720;48.274;7.796;2023-06-14T03:49:45;15.43;;;5.93;;
7359;SDS011;3720;48.274;7.796;2023-06-14T03:52:16;10.50;;;5.95;;
7359;SDS011;3720;48.274;7.796;2023-06-14T03:54:48;9.10;;;5.45;;
7359;SDS011;3720;48.274;7.796;2023-06-14T03:57:23;8.60;;;5.60;;
7359;SDS011;3720;48.274;7.796;2023-06-14T03:59:55;7.55;;;5.90;;
7359;SDS011;3720;48.274;7.796;2023-06-14T04:02:27;8.43;;;5.80;;
7359;SDS011;3720;48.274;7.796;2023-06-14T04:05:00;8.63;;;5.63;;
7359;SDS011;3720;48.274;7.796;2023-06-14T04:07:32;7.85;;;5.15;;
7359;SDS011;3720;48.274;7.796;2023-06-14T04:10:10;6.25;;;4.85;;
7359;SDS011;3720;48.274;7.796;2023-06-14T04:12:44;6.38;;;5.00;;
7359;SDS011;3720;48.274;7.796;2023-06-14T04:15:16;8.77;;;5.20;;
7359;SDS011;3720;48.274;7.796;2023-06-14T04:17:48;7.72;;;5.50;;
7359;SDS011;3720;48.274;7.796;2023-06-14T04:20:20;6.63;;;5.22;;
7359;SDS011;3720;48.274;7.796;2023-06-14T04:22:52;7.75;;;5.15;;
7359;SDS011;3720;48.274;7.796;2023-06-14T04:25:27;10.05;;;5.22;;
7359;SDS011;3720;48.274;7.796;2023-06-14T04:28:03;7.75;;;4.90;;
7359;SDS011;3720;48.274;7.796;2023-06-14T04:30:35;7.22;;;5.40;;
7359;SDS011;3720;48.274;7.796;2023-06-14T04:33:08;8.15;;;5.57;;
7359;SDS011;3720;48.274;7.796;2023-06-14T04:35:41;8.63;;;5.80;;
7359;SDS011;3720;48.274;7.796;2023-06-14T04:38:17;7.40;;;5.35;;
7359;SDS011;3720;48.274;7.796;2023-06-14T04:40:49;6.80;;;5.35;;
7359;SDS011;3720;48.274;7.796;2023-06-14T04:43:24;7.50;;;5.05;;
7359;SDS011;3720;48.274;7.796;2023-06-14T04:45:57;10.38;;;5.45;;
7359;SDS011;3720;48.274;7.796;2023-06-14T04:48:31;8.75;;;5.80;;
7359;SDS011;3720;48.274;7.796;2023-06-14T04:51:03;11.70;;;5.85;;
7359;SDS011;3720;48.274;7.796;2023-06-14T04:53:35;8.27;;;6.00;;
7359;SDS011;3720;48.274;7.796;2023-06-14T04:56:08;7.15;;;5.53;;
7359;SDS011;3720;48.274;7.796;2023-06-14T04:58:42;11.00;;;5.30;;
7359;SDS011;3720;48.274;7.796;2023-06-14T05:01:16;9.43;;;5.80;;
7359;SDS011;3720;48.274;7.796;2023-06-14T05:03:48;11.77;;;5.80;;
7359;SDS011;3720;48.274;7.796;2023-06-14T05:06:20;9.13;;;5.63;;
7359;SDS011;3720;48.274;7.796;2023-06-14T05:08:52;8.05;;;6.00;;
7359;SDS011;3720;48.274;7.796;2023-06-14T05:11:24;8.43;;;5.63;;
7359;SDS011;3720;48.274;7.796;2023-06-14T05:13:58;9.35;;;5.93;;
7359;SDS011;3720;48.274;7.796;2023-06-14T05:16:31;8.27;;;6.13;;
7359;SDS011;3720;48.274;7.796;2023-06-14T05:19:03;6.60;;;5.50;;
7359;SDS011;3720;48.274;7.796;2023-06-14T05:21:36;11.77;;;5.93;;
7359;SDS011;3720;48.274;7.796;2023-06-14T05:24:08;8.50;;;5.40;;
7359;SDS011;3720;48.274;7.796;2023-06-14T05:26:41;12.68;;;6.22;;
7359;SDS011;3720;48.274;7.796;2023-06-14T05:29:14;10.45;;;5.68;;
7359;SDS011;3720;48.274;7.796;2023-06-14T05:31:46;13.55;;;5.75;;
7359;SDS011;3720;48.274;7.796;2023-06-14T05:34:18;9.90;;;6.00;;
7359;SDS011;3720;48.274;7.796;2023-06-14T05:36:50;8.57;;;5.35;;
7359;SDS011;3720;48.274;7.796;2023-06-14T05:39:22;8.70;;;5.80;;
7359;SDS011;3720;48.274;7.796;2023-06-14T05:41:55;11.90;;;5.32;;
7359;SDS011;3720;48.274;7.796;2023-06-14T05:44:28;9.25;;;5.65;;
7359;SDS011;3720;48.274;7.796;2023-06-14T05:47:00;11.68;;;5.70;;
7359;SDS011;3720;48.274;7.796;2023-06-14T05:49:32;10.55;;;5.85;;
7359;SDS011;3720;48.274;7.796;2023-06-14T05:52:04;9.23;;;5.80;;
7359;SDS011;3720;48.274;7.796;2023-06-14T05:54:37;9.77;;;5.53;;
7359;SDS011;3720;48.274;7.796;2023-06-14T05:57:09;9.40;;;5.75;;
7359;SDS011;3720;48.274;7.796;2023-06-14T05:59:43;9.43;;;5.57;;
7359;SDS011;3720;48.274;7.796;2023-06-14T06:02:15;8.48;;;5.43;;
7359;SDS011;3720;48.274;7.796;2023-06-14T06:04:47;14.52;;;5.75;;
7359;SDS011;3720;48.274;7.796;2023-06-14T06:07:18;7.68;;;5.30;;
7359;SDS011;3720;48.274;7.796;2023-06-14T06:09:50;9.45;;;5.50;;
7359;SDS011;3720;48.274;7.796;2023-06-14T06:12:22;8.68;;;5.50;;
7359;SDS011;3720;48.274;7.796;2023-06-14T06:14:55;7.07;;;5.40;;
7359;SDS011;3720;48.274;7.796;2023-06-14T06:17:28;9.57;;;5.60;;
7359;SDS011;3720;48.274;7.796;2023-06-14T06:19:59;8.85;;;5.68;;
7359;SDS011;3720;48.274;7.796;2023-06-14T06:22:31;12.27;;;5.63;;
7359;SDS011;3720;48.274;7.796;2023-06-14T06:25:04;7.93;;;5.60;;
7359;SDS011;3720;48.274;7.796;2023-06-14T06:27:37;8.52;;;5.72;;
7359;SDS011;3720;48.274;7.796;2023-06-14T06:30:13;7.47;;;5.30;;
7359;SDS011;3720;48.274;7.796;2023-06-14T06:32:45;8.13;;;5.50;;
7359;SDS011;3720;48.274;7.796;2023-06-14T06:35:17;7.50;;;5.50;;
7359;SDS011;3720;48.274;7.796;2023-06-14T06:37:49;5.95;;;5.10;;
7359;SDS011;3720;48.274;7.796;2023-06-14T06:40:21;8.70;;;5.32;;
7359;SDS011;3720;48.274;7.796;2023-06-14T06:42:54;6.50;;;4.80;;
7359;SDS011;3720;48.274;7.796;2023-06-14T06:45:27;8.07;;;4.70;;
7359;SDS011;3720;48.274;7.796;2023-06-14T06:47:59;8.57;;;5.53;;
7359;SDS011;3720;48.274;7.796;2023-06-14T06:50:31;6.45;;;5.13;;
7359;SDS011;3720;48.274;7.796;2023-06-14T06:53:04;7.07;;;4.90;;
7359;SDS011;3720;48.274;7.796;2023-06-14T06:55:36;8.50;;;5.47;;
7359;SDS011;3720;48.274;7.796;2023-06-14T06:58:08;9.43;;;5.93;;
7359;SDS011;3720;48.274;7.796;2023-06-14T07:00:42;11.07;;;5.40;;
7359;SDS011;3720;48.274;7.796;2023-06-14T07:03:13;10.48;;;5.55;;
7359;SDS011;3720;48.274;7.796;2023-06-14T07:05:45;8.73;;;5.85;;
7359;SDS011;3720;48.274;7.796;2023-06-14T07:08:17;9.82;;;5.70;;
7359;SDS011;3720;48.274;7.796;2023-06-14T07:10:49;11.98;;;6.07;;
7359;SDS011;3720;48.274;7.796;2023-06-14T07:13:21;7.85;;;5.90;;
7359;SDS011;3720;48.274;7.796;2023-06-14T07:15:57;7.47;;;5.35;;
7359;SDS011;3720;48.274;7.796;2023-06-14T07:21:01;7.82;;;5.40;;
7359;SDS011;3720;48.274;7.796;2023-06-14T07:23:33;8.25;;;4.97;;
7359;SDS011;3720;48.274;7.796;2023-06-14T07:26:06;6.75;;;5.20;;
7359;SDS011;3720;48.274;7.796;2023-06-14T07:28:37;7.70;;;5.10;;
7359;SDS011;3720;48.274;7.796;2023-06-14T07:31:11;6.72;;;4.93;;
7359;SDS011;3720;48.274;7.796;2023-06-14T07:33:43;6.75;;;5.22;;
7359;SDS011;3720;48.274;7.796;2023-06-14T07:36:15;9.77;;;5.10;;
7359;SDS011;3720;48.274;7.796;2023-06-14T07:38:47;7.78;;;5.03;;
7359;SDS011;3720;48.274;7.796;2023-06-14T07:41:19;9.10;;;4.90;;
7359;SDS011;3720;48.274;7.796;2023-06-14T07:43:51;8.77;;;5.30;;
7359;SDS011;3720;48.274;7.796;2023-06-14T07:46:25;8.60;;;5.05;;
7359;SDS011;3720;48.274;7.796;2023-06-14T07:48:57;7.13;;;5.28;;
7359;SDS011;3720;48.274;7.796;2023-06-14T07:51:28;7.78;;;4.93;;
7359;SDS011;3720;48.274;7.796;2023-06-14T07:54:00;6.28;;;4.90;;
7359;SDS011;3720;48.274;7.796;2023-06-14T07:56:32;6.00;;;5.18;;
7359;SDS011;3720;48.274;7.796;2023-06-14T07:59:05;10.30;;;5.20;;
7359;SDS011;3720;48.274;7.796;2023-06-14T08:01:39;7.68;;;5.28;;
7359;SDS011;3720;48.274;7.796;2023-06-14T08:04:17;7.90;;;5.15;;
7359;SDS011;3720;48.274;7.796;2023-06-14T08:06:48;9.43;;;5.22;;
7359;SDS011;3720;48.274;7.796;2023-06-14T08:09:21;9.05;;;5.00;;
7359;SDS011;3720;48.274;7.796;2023-06-14T08:11:54;8.88;;;5.20;;
7359;SDS011;3720;48.274;7.796;2023-06-14T08:14:26;11.25;;;5.50;;
7359;SDS011;3720;48.274;7.796;2023-06-14T08:17:00;7.95;;;5.20;;
7359;SDS011;3720;48.274;7.796;2023-06-14T08:19:32;9.43;;;5.53;;
7359;SDS011;3720;48.274;7.796;2023-06-14T08:22:04;6.78;;;4.75;;
7359;SDS011;3720;48.274;7.796;2023-06-14T08:24:36;6.68;;;5.50;;
7359;SDS011;3720;48.274;7.796;2023-06-14T08:27:09;11.07;;;4.95;;
7359;SDS011;3720;48.274;7.796;2023-06-14T08:29:41;8.38;;;5.40;;
7359;SDS011;3720;48.274;7.796;2023-06-14T08:32:15;9.05;;;4.88;;
7359;SDS011;3720;48.274;7.796;2023-06-14T08:34:47;11.52;;;5.32;;
7359;SDS011;3720;48.274;7.796;2023-06-14T08:37:19;7.95;;;4.82;;
7359;SDS011;3720;48.274;7.796;2023-06-14T08:39:51;9.00;;;5.25;;
7359;SDS011;3720;48.274;7.796;2023-06-14T08:42:24;10.55;;;4.78;;
7359;SDS011;3720;48.274;7.796;2023-06-14T08:44:56;7.65;;;5.00;;
7359;SDS011;3720;48.274;7.796;2023-06-14T08:47:29;11.80;;;5.05;;
7359;SDS011;3720;48.274;7.796;2023-06-14T08:50:06;8.80;;;5.13;;
7359;SDS011;3720;48.274;7.796;2023-06-14T08:52:39;7.55;;;4.70;;
7359;SDS011;3720;48.274;7.796;2023-06-14T08:55:21;6.32;;;5.07;;
7359;SDS011;3720;48.274;7.796;2023-06-14T08:57:56;8.55;;;5.15;;
7359;SDS011;3720;48.274;7.796;2023-06-14T09:00:29;6.70;;;4.85;;
7359;SDS011;3720;48.274;7.796;2023-06-14T09:03:02;7.03;;;4.82;;
7359;SDS011;3720;48.274;7.796;2023-06-14T09:05:40;7.80;;;4.90;;
7359;SDS011;3720;48.274;7.796;2023-06-14T09:08:13;10.90;;;5.00;;
7359;SDS011;3720;48.274;7.796;2023-06-14T09:10:46;8.13;;;4.88;;
7359;SDS011;3720;48.274;7.796;2023-06-14T09:13:18;10.80;;;5.10;;
7359;SDS011;3720;48.274;7.796;2023-06-14T09:15:50;6.68;;;4.47;;
7359;SDS011;3720;48.274;7.796;2023-06-14T09:18:23;6.28;;;4.30;;
7359;SDS011;3720;48.274;7.796;2023-06-14T09:21:06;10.68;;;4.65;;
7359;SDS011;3720;48.274;7.796;2023-06-14T09:23:39;8.57;;;4.60;;
7359;SDS011;3720;48.274;7.796;2023-06-14T09:26:12;10.90;;;4.68;;
7359;SDS011;3720;48.274;7.796;2023-06-14T09:28:46;8.02;;;4.40;;
7359;SDS011;3720;48.274;7.796;2023-06-14T09:31:19;6.05;;;4.50;;
7359;SDS011;3720;48.274;7.796;2023-06-14T09:33:53;7.18;;;4.45;;
7359;SDS011;3720;48.274;7.796;2023-06-14T09:36:26;6.63;;;4.40;;
7359;SDS011;3720;48.274;7.796;2023-06-14T09:38:59;7.50;;;4.97;;
7359;SDS011;3720;48.274;7.796;2023-06-14T09:41:36;7.43;;;4.50;;
7359;SDS011;3720;48.274;7.796;2023-06-14T09:44:10;10.57;;;4.90;;
7359;SDS011;3720;48.274;7.796;2023-06-14T09:46:42;6.72;;;4.78;;
7359;SDS011;3720;48.274;7.796;2023-06-14T09:49:17;8.90;;;5.00;;
7359;SDS011;3720;48.274;7.796;2023-06-14T09:51:50;10.10;;;5.10;;
7359;SDS011;3720;48.274;7.796;2023-06-14T09:54:23;9.45;;;4.53;;
7359;SDS011;3720;48.274;7.796;2023-06-14T09:56:57;8.95;;;4.63;;
7359;SDS011;3720;48.274;7.796;2023-06-14T09:59:30;9.43;;;5.15;;
7359;SDS011;3720;48.274;7.796;2023-06-14T10:02:05;10.02;;;5.13;;
7359;SDS011;3720;48.274;7.796;2023-06-14T10:04:46;7.28;;;4.82;;
7359;SDS011;3720;48.274;7.796;2023-06-14T10:07:21;7.43;;;4.90;;
7359;SDS011;3720;48.274;7.796;2023-06-14T10:09:53;7.75;;;4.55;;
7359;SDS011;3720;48.274;7.796;2023-06-14T10:12:25;5.70;;;4.03;;
7359;SDS011;3720;48.274;7.796;2023-06-14T10:14:58;9.73;;;4.63;;
7359;SDS011;3720;48.274;7.796;2023-06-14T10:17:33;6.10;;;4.43;;
7359;SDS011;3720;48.274;7.796;2023-06-14T10:20:19;7.65;;;4.90;;
7359;SDS011;3720;48.274;7.796;2023-06-14T10:23:01;10.13;;;4.40;;
7359;SDS011;3720;48.274;7.796;2023-06-14T10:25:38;13.65;;;4.55;;
7359;SDS011;3720;48.274;7.796;2023-06-14T10:28:17;8.10;;;4.50;;
7359;SDS011;3720;48.274;7.796;2023-06-14T10:31:01;7.28;;;4.32;;
7359;SDS011;3720;48.274;7.796;2023-06-14T10:33:35;6.90;;;4.47;;
7359;SDS011;3720;48.274;7.796;2023-06-14T10:36:24;9.75;;;4.65;;
7359;SDS011;3720;48.274;7.796;2023-06-14T10:39:05;7.90;;;4.45;;
7359;SDS011;3720;48.274;7.796;2023-06-14T10:41:38;8.80;;;4.40;;
7359;SDS011;3720;48.274;7.796;2023-06-14T10:47:10;6.07;;;4.10;;
7359;SDS011;3720;48.274;7.796;2023-06-14T10:49:53;5.13;;;4.18;;
7359;SDS011;3720;48.274;7.796;2023-06-14T10:52:28;5.80;;;4.22;;
7359;SDS011;3720;48.274;7.796;2023-06-14T10:55:05;8.05;;;4.20;;
7359;SDS011;3720;48.274;7.796;2023-06-14T10:57:42;10.10;;;4.10;;
7359;SDS011;3720;48.274;7.796;2023-06-14T11:00:18;5.10;;;4.00;;
7359;SDS011;3720;48.274;7.796;2023-06-14T11:06:15;5.82;;;4.43;;
7359;SDS011;3720;48.274;7.796;2023-06-14T11:08:56;9.45;;;4.40;;
7359;SDS011;3720;48.274;7.796;2023-06-14T11:11:46;6.82;;;4.03;;
7359;SDS011;3720;48.274;7.796;2023-06-14T11:14:20;5.78;;;4.18;;
7359;SDS011;3720;48.274;7.796;2023-06-14T11:16:52;6.60;;;4.20;;
7359;SDS011;3720;48.274;7.796;2023-06-14T11:19:24;5.47;;;3.88;;
7359;SDS011;3720;48.274;7.796;2023-06-14T11:21:58;5.80;;;3.72;;
7359;SDS011;3720;48.274;7.796;2023-06-14T11:24:33;6.00;;;4.40;;
7359;SDS011;3720;48.274;7.796;2023-06-14T11:27:05;7.13;;;4.20;;
7359;SDS011;3720;48.274;7.796;2023-06-14T11:29:38;5.57;;;4.15;;
7359;SDS011;3720;48.274;7.796;2023-06-14T11:32:18;6.93;;;4.25;;
7359;SDS011;3720;48.274;7.796;2023-06-14T11:34:51;9.07;;;4.13;;
7359;SDS011;3720;48.274;7.796;2023-06-14T11:37:23;9.43;;;4.13;;
7359;SDS011;3720;48.274;7.796;2023-06-14T11:39:57;6.80;;;3.72;;
7359;SDS011;3720;48.274;7.796;2023-06-14T11:42:30;5.30;;;4.00;;
7359;SDS011;3720;48.274;7.796;2023-06-14T11:45:02;6.72;;;3.90;;
7359;SDS011;3720;48.274;7.796;2023-06-14T11:47:35;8.10;;;4.07;;
7359;SDS011;3720;48.274;7.796;2023-06-14T11:50:09;7.78;;;4.05;;
7359;SDS011;3720;48.274;7.796;2023-06-14T11:52:41;10.25;;;4.18;;
7359;SDS011;3720;48.274;7.796;2023-06-14T11:55:16;5.40;;;3.67;;
7359;SDS011;3720;48.274;7.796;2023-06-14T11:57:48;6.88;;;4.15;;
7359;SDS011;3720;48.274;7.796;2023-06-14T12:00:24;6.30;;;3.83;;
7359;SDS011;3720;48.274;7.796;2023-06-14T12:02:57;8.30;;;4.05;;
7359;SDS011;3720;48.274;7.796;2023-06-14T12:05:30;6.78;;;3.83;;
7359;SDS011;3720;48.274;7.796;2023-06-14T12:08:04;7.63;;;4.07;;
7359;SDS011;3720;48.274;7.796;2023-06-14T12:10:42;6.63;;;3.90;;
7359;SDS011;3720;48.274;7.796;2023-06-14T12:13:16;12.73;;;4.50;;
7359;SDS011;3720;48.274;7.796;2023-06-14T12:15:53;6.90;;;3.67;;
7359;SDS011;3720;48.274;7.796;2023-06-14T12:18:32;4.97;;;3.92;;
7359;SDS011;3720;48.274;7.796;2023-06-14T12:21:05;6.32;;;3.92;;
7359;SDS011;3720;48.274;7.796;2023-06-14T12:23:44;5.30;;;4.10;;
7359;SDS011;3720;48.274;7.796;2023-06-14T12:26:19;6.53;;;4.05;;
7359;SDS011;3720;48.274;7.796;2023-06-14T12:28:51;9.20;;;4.00;;
7359;SDS011;3720;48.274;7.796;2023-06-14T12:31:24;7.22;;;4.07;;
7359;SDS011;3720;48.274;7.796;2023-06-14T12:33:56;7.80;;;4.05;;
7359;SDS011;3720;48.274;7.796;2023-06-14T12:36:29;5.53;;;3.53;;
7359;SDS011;3720;48.274;7.796;2023-06-14T12:39:02;6.95;;;4.18;;
7359;SDS011;3720;48.274;7.796;2023-06-14T12:41:36;4.85;;;3.70;;
7359;SDS011;3720;48.274;7.796;2023-06-14T12:44:11;9.35;;;4.10;;
7359;SDS011;3720;48.274;7.796;2023-06-14T12:46:43;7.20;;;3.88;;
7359;SDS011;3720;48.274;7.796;2023-06-14T12:49:15;5.07;;;3.78;;
7359;SDS011;3720;48.274;7.796;2023-06-14T12:51:48;7.22;;;3.92;;
7359;SDS011;3720;48.274;7.796;2023-06-14T12:54:20;5.97;;;3.83;;
7359;SDS011;3720;48.274;7.796;2023-06-14T12:56:56;10.07;;;4.03;;
7359;SDS011;3720;48.274;7.796;2023-06-14T12:59:29;7.93;;;3.97;;
7359;SDS011;3720;48.274;7.796;2023-06-14T13:02:12;5.65;;;3.88;;
7359;SDS011;3720;48.274;7.796;2023-06-14T13:04:45;7.25;;;3.90;;
7359;SDS011;3720;48.274;7.796;2023-06-14T13:07:17;6.82;;;3.67;;
7359;SDS011;3720;48.274;7.796;2023-06-14T13:09:49;6.90;;;3.70;;
7359;SDS011;3720;48.274;7.796;2023-06-14T13:12:22;6.47;;;3.50;;
7359;SDS011;3720;48.274;7.796;2023-06-14T13:14:54;6.18;;;3.83;;
7359;SDS011;3720;48.274;7.796;2023-06-14T13:17:26;5.78;;;3.90;;
7359;SDS011;3720;48.274;7.796;2023-06-14T13:19:58;8.88;;;3.90;;
7359;SDS011;3720;48.274;7.796;2023-06-14T13:22:30;6.20;;;4.00;;
7359;SDS011;3720;48.274;7.796;2023-06-14T13:25:02;11.10;;;3.80;;
7359;SDS011;3720;48.274;7.796;2023-06-14T13:27:35;5.82;;;3.80;;
7359;SDS011;3720;48.274;7.796;2023-06-14T13:30:08;6.22;;;3.40;;
7359;SDS011;3720;48.274;7.796;2023-06-14T13:32:42;7.60;;;3.58;;
7359;SDS011;3720;48.274;7.796;2023-06-14T13:35:14;4.68;;;3.38;;
7359;SDS011;3720;48.274;7.796;2023-06-14T13:37:46;7.30;;;3.90;;
7359;SDS011;3720;48.274;7.796;2023-06-14T13:40:18;8.48;;;3.78;;
7359;SDS011;3720;48.274;7.796;2023-06-14T13:42:51;4.50;;;3.63;;
7359;SDS011;3720;48.274;7.796;2023-06-14T13:45:23;5.93;;;3.92;;
7359;SDS011;3720;48.274;7.796;2023-06-14T13:47:55;5.65;;;3.42;;
7359;SDS011;3720;48.274;7.796;2023-06-14T13:50:27;5.63;;;3.88;;
7359;SDS011;3720;48.274;7.796;2023-06-14T13:52:59;6.93;;;3.80;;
7359;SDS011;3720;48.274;7.796;2023-06-14T13:55:31;5.80;;;3.55;;
7359;SDS011;3720;48.274;7.796;2023-06-14T13:58:04;5.45;;;3.70;;
7359;SDS011;3720;48.274;7.796;2023-06-14T14:00:36;10.88;;;4.07;;
7359;SDS011;3720;48.274;7.796;2023-06-14T14:03:10;5.28;;;3.80;;
7359;SDS011;3720;48.274;7.796;2023-06-14T14:05:42;6.53;;;3.50;;
7359;SDS011;3720;48.274;7.796;2023-06-14T14:08:14;4.35;;;3.60;;
7359;SDS011;3720;48.274;7.796;2023-06-14T14:10:46;6.57;;;3.63;;
7359;SDS011;3720;48.274;7.796;2023-06-14T14:13:19;10.13;;;3.85;;
7359;SDS011;3720;48.274;7.796;2023-06-14T14:15:51;9.27;;;3.78;;
7359;SDS011;3720;48.274;7.796;2023-06-14T14:18:24;8.18;;;3.70;;
7359;SDS011;3720;48.274;7.796;2023-06-14T14:20:55;5.22;;;3.60;;
7359;SDS011;3720;48.274;7.796;2023-06-14T14:23:28;5.68;;;4.03;;
7359;SDS011;3720;48.274;7.796;2023-06-14T14:26:00;7.82;;;3.88;;
7359;SDS011;3720;48.274;7.796;2023-06-14T14:28:35;7.13;;;3.92;;
7359;SDS011;3720;48.274;7.796;2023-06-14T14:31:07;11.10;;;4.00;;
7359;SDS011;3720;48.274;7.796;2023-06-14T14:33:39;5.55;;;3.70;;
7359;SDS011;3720;48.274;7.796;2023-06-14T14:36:10;7.07;;;3.80;;
7359;SDS011;3720;48.274;7.796;2023-06-14T14:38:43;6.03;;;3.85;;
7359;SDS011;3720;48.274;7.796;2023-06-14T14:41:17;6.40;;;4.10;;
7359;SDS011;3720;48.274;7.796;2023-06-14T14:43:50;7.57;;;3.78;;
7359;SDS011;3720;48.274;7.796;2023-06-14T14:46:22;6.05;;;3.45;;
7359;SDS011;3720;48.274;7.796;2023-06-14T14:48:54;6.85;;;3.67;;
7359;SDS011;3720;48.274;7.796;2023-06-14T14:51:26;5.68;;;3.60;;
7359;SDS011;3720;48.274;7.796;2023-06-14T14:53:58;9.05;;;4.05;;
7359;SDS011;3720;48.274;7.796;2023-06-14T14:56:30;8.65;;;3.63;;
7359;SDS011;3720;48.274;7.796;2023-06-14T14:59:03;7.00;;;3.70;;
7359;SDS011;3720;48.274;7.796;2023-06-14T15:01:35;6.18;;;3.83;;
7359;SDS011;3720;48.274;7.796;2023-06-14T15:04:07;6.57;;;3.70;;
7359;SDS011;3720;48.274;7.796;2023-06-14T15:06:39;8.18;;;4.20;;
7359;SDS011;3720;48.274;7.796;2023-06-14T15:09:11;6.15;;;3.72;;
7359;SDS011;3720;48.274;7.796;2023-06-14T15:11:43;5.95;;;4.10;;
7359;SDS011;3720;48.274;7.796;2023-06-14T15:14:17;8.00;;;4.03;;
7359;SDS011;3720;48.274;7.796;2023-06-14T15:16:49;6.22;;;3.80;;
7359;SDS011;3720;48.274;7.796;2023-06-14T15:19:21;4.80;;;3.80;;
7359;SDS011;3720;48.274;7.796;2023-06-14T15:21:52;5.35;;;3.80;;
7359;SDS011;3720;48.274;7.796;2023-06-14T15:24:25;12.10;;;3.90;;
7359;SDS011;3720;48.274;7.796;2023-06-14T15:26:56;5.40;;;3.78;;
7359;SDS011;3720;48.274;7.796;2023-06-14T15:29:30;7.70;;;3.92;;
7359;SDS011;3720;48.274;7.796;2023-06-14T15:32:02;5.45;;;3.90;;
7359;SDS011;3720;48.274;7.796;2023-06-14T15:34:35;11.85;;;3.90;;
7359;SDS011;3720;48.274;7.796;2023-06-14T15:37:09;5.35;;;4.07;;
7359;SDS011;3720;48.274;7.796;2023-06-14T15:39:40;5.90;;;3.90;;
7359;SDS011;3720;48.274;7.796;2023-06-14T15:42:12;8.02;;;4.00;;
7359;SDS011;3720;48.274;7.796;2023-06-14T15:44:46;6.35;;;3.90;;
7359;SDS011;3720;48.274;7.796;2023-06-14T15:47:17;5.00;;;3.75;;
7359;SDS011;3720;48.274;7.796;2023-06-14T15:49:49;7.40;;;4.03;;
7359;SDS011;3720;48.274;7.796;2023-06-14T15:52:21;11.05;;;4.47;;
7359;SDS011;3720;48.274;7.796;2023-06-14T15:54:53;12.93;;;4.63;;
7359;SDS011;3720;48.274;7.796;2023-06-14T15:57:25;5.30;;;3.80;;
7359;SDS011;3720;48.274;7.796;2023-06-14T15:59:58;6.45;;;3.83;;